Aviation Digital Data Service (ADDS)

Output produced by TAFs form (1108 UTC 03 March 2015)
found at http://aviationweather.gov/adds/tafs/
 
KASE 030832Z 0309/0406 VRB03KT P6SM VCSH BKN040 OVC060 WS020/23040KT 
     FM031000 31007KT P6SM VCSH BKN040 OVC060 
     FM031800 36010G15KT 5SM BR VCSH SCT025 OVC040 
     FM032100 34010G20KT 4SM -SHSN BKN020 OVC040